sensor_id;sensor_type;location;lat;lon;timestamp;temperature;humidity
75153;HTU21D;63734;45.218;36.708;2023-03-01T00:01:50;3.54;94.67
75153;HTU21D;63734;45.218;36.708;2023-03-01T00:04:16;3.49;95.11
75153;HTU21D;63734;45.218;36.708;2023-03-01T00:06:43;3.45;95.23
75153;HTU21D;63734;45.218;36.708;2023-03-01T00:09:12;3.39;95.61
75153;HTU21D;63734;45.218;36.708;2023-03-01T00:11:38;3.36;95.72
75153;HTU21D;63734;45.218;36.708;2023-03-01T00:14:05;3.33;95.86
75153;HTU21D;63734;45.218;36.708;2023-03-01T00:16:37;3.30;96.01
75153;HTU21D;63734;45.218;36.708;2023-03-01T00:19:08;3.26;96.12
75153;HTU21D;63734;45.218;36.708;2023-03-01T00:21:35;3.21;96.42
75153;HTU21D;63734;45.218;36.708;2023-03-01T00:24:01;3.18;96.61
75153;HTU21D;63734;45.218;36.708;2023-03-01T00:26:28;3.16;96.71
75153;HTU21D;63734;45.218;36.708;2023-03-01T00:28:54;3.14;96.79
75153;HTU21D;63734;45.218;36.708;2023-03-01T00:31:22;3.10;97.15
75153;HTU21D;63734;45.218;36.708;2023-03-01T00:33:52;3.10;97.17
75153;HTU21D;63734;45.218;36.708;2023-03-01T00:36:19;3.11;97.35
75153;HTU21D;63734;45.218;36.708;2023-03-01T00:38:45;3.11;97.78
75153;HTU21D;63734;45.218;36.708;2023-03-01T00:41:14;3.05;97.97
75153;HTU21D;63734;45.218;36.708;2023-03-01T00:43:41;3.00;97.83
75153;HTU21D;63734;45.218;36.708;2023-03-01T00:46:10;2.98;97.69
75153;HTU21D;63734;45.218;36.708;2023-03-01T00:48:37;2.96;97.43
75153;HTU21D;63734;45.218;36.708;2023-03-01T00:51:12;2.94;97.23
75153;HTU21D;63734;45.218;36.708;2023-03-01T00:53:38;2.94;97.09
75153;HTU21D;63734;45.218;36.708;2023-03-01T00:56:07;2.94;96.89
75153;HTU21D;63734;45.218;36.708;2023-03-01T00:58:34;2.91;96.70
75153;HTU21D;63734;45.218;36.708;2023-03-01T01:01:00;2.91;96.74
75153;HTU21D;63734;45.218;36.708;2023-03-01T01:03:26;2.93;96.61
75153;HTU21D;63734;45.218;36.708;2023-03-01T01:05:53;2.89;96.55
75153;HTU21D;63734;45.218;36.708;2023-03-01T01:08:22;2.87;96.53
75153;HTU21D;63734;45.218;36.708;2023-03-01T01:10:48;2.84;96.54
75153;HTU21D;63734;45.218;36.708;2023-03-01T01:13:14;2.81;96.41
75153;HTU21D;63734;45.218;36.708;2023-03-01T01:15:40;2.74;96.26
75153;HTU21D;63734;45.218;36.708;2023-03-01T01:18:06;2.72;96.23
75153;HTU21D;63734;45.218;36.708;2023-03-01T01:20:32;2.72;96.29
75153;HTU21D;63734;45.218;36.708;2023-03-01T01:22:58;2.71;96.20
75153;HTU21D;63734;45.218;36.708;2023-03-01T01:25:25;2.71;96.10
75153;HTU21D;63734;45.218;36.708;2023-03-01T01:27:51;2.68;95.98
75153;HTU21D;63734;45.218;36.708;2023-03-01T01:30:17;2.66;95.81
75153;HTU21D;63734;45.218;36.708;2023-03-01T01:32:44;2.61;95.72
75153;HTU21D;63734;45.218;36.708;2023-03-01T01:35:09;2.59;95.68
75153;HTU21D;63734;45.218;36.708;2023-03-01T01:37:35;2.56;95.65
75153;HTU21D;63734;45.218;36.708;2023-03-01T01:40:02;2.55;95.60
75153;HTU21D;63734;45.218;36.708;2023-03-01T01:42:31;2.54;95.67
75153;HTU21D;63734;45.218;36.708;2023-03-01T01:45:36;2.54;95.65
75153;HTU21D;63734;45.218;36.708;2023-03-01T01:48:10;2.51;95.53
75153;HTU21D;63734;45.218;36.708;2023-03-01T01:50:40;2.50;95.42
75153;HTU21D;63734;45.218;36.708;2023-03-01T01:53:16;2.49;95.42
75153;HTU21D;63734;45.218;36.708;2023-03-01T01:55:46;2.45;95.35
75153;HTU21D;63734;45.218;36.708;2023-03-01T01:58:16;2.41;95.04
75153;HTU21D;63734;45.218;36.708;2023-03-01T02:00:42;2.39;94.92
75153;HTU21D;63734;45.218;36.708;2023-03-01T02:03:12;2.36;94.86
75153;HTU21D;63734;45.218;36.708;2023-03-01T02:06:03;2.34;94.88
75153;HTU21D;63734;45.218;36.708;2023-03-01T02:08:31;2.37;95.04
75153;HTU21D;63734;45.218;36.708;2023-03-01T02:10:59;2.40;94.98
75153;HTU21D;63734;45.218;36.708;2023-03-01T02:13:27;2.38;94.87
75153;HTU21D;63734;45.218;36.708;2023-03-01T02:15:54;2.37;94.98
75153;HTU21D;63734;45.218;36.708;2023-03-01T02:18:21;2.35;94.88
75153;HTU21D;63734;45.218;36.708;2023-03-01T02:23:22;2.30;95.10
75153;HTU21D;63734;45.218;36.708;2023-03-01T02:26:09;2.28;95.25
75153;HTU21D;63734;45.218;36.708;2023-03-01T02:28:40;2.25;95.25
75153;HTU21D;63734;45.218;36.708;2023-03-01T02:31:10;2.21;95.27
75153;HTU21D;63734;45.218;36.708;2023-03-01T02:33:55;2.20;95.45
75153;HTU21D;63734;45.218;36.708;2023-03-01T02:36:26;2.21;95.37
75153;HTU21D;63734;45.218;36.708;2023-03-01T02:38:58;2.19;95.45
75153;HTU21D;63734;45.218;36.708;2023-03-01T02:41:26;2.19;95.62
75153;HTU21D;63734;45.218;36.708;2023-03-01T02:43:54;2.14;95.75
75153;HTU21D;63734;45.218;36.708;2023-03-01T02:46:23;2.16;95.88
75153;HTU21D;63734;45.218;36.708;2023-03-01T02:48:52;2.16;95.92
75153;HTU21D;63734;45.218;36.708;2023-03-01T02:56:47;2.19;95.94
75153;HTU21D;63734;45.218;36.708;2023-03-01T02:59:19;2.20;95.93
75153;HTU21D;63734;45.218;36.708;2023-03-01T03:01:45;2.16;95.92
75153;HTU21D;63734;45.218;36.708;2023-03-01T03:04:15;2.16;95.94
75153;HTU21D;63734;45.218;36.708;2023-03-01T03:06:47;2.17;95.88
75153;HTU21D;63734;45.218;36.708;2023-03-01T03:09:14;2.16;95.91
75153;HTU21D;63734;45.218;36.708;2023-03-01T03:11:41;2.16;95.55
75153;HTU21D;63734;45.218;36.708;2023-03-01T03:14:10;2.11;95.36
75153;HTU21D;63734;45.218;36.708;2023-03-01T03:16:45;2.08;95.36
75153;HTU21D;63734;45.218;36.708;2023-03-01T03:19:12;2.06;95.29
75153;HTU21D;63734;45.218;36.708;2023-03-01T03:21:38;2.01;95.38
75153;HTU21D;63734;45.218;36.708;2023-03-01T03:24:04;2.07;95.52
75153;HTU21D;63734;45.218;36.708;2023-03-01T03:26:31;2.03;95.46
75153;HTU21D;63734;45.218;36.708;2023-03-01T03:28:57;1.98;95.17
75153;HTU21D;63734;45.218;36.708;2023-03-01T03:31:24;1.94;95.04
75153;HTU21D;63734;45.218;36.708;2023-03-01T03:33:50;1.86;94.84
75153;HTU21D;63734;45.218;36.708;2023-03-01T03:36:22;1.82;94.94
75153;HTU21D;63734;45.218;36.708;2023-03-01T03:38:48;1.81;94.87
75153;HTU21D;63734;45.218;36.708;2023-03-01T03:41:15;1.76;94.58
75153;HTU21D;63734;45.218;36.708;2023-03-01T03:43:43;1.73;94.49
75153;HTU21D;63734;45.218;36.708;2023-03-01T03:46:10;1.75;94.58
75153;HTU21D;63734;45.218;36.708;2023-03-01T03:48:40;1.72;94.41
75153;HTU21D;63734;45.218;36.708;2023-03-01T03:51:06;1.72;94.36
75153;HTU21D;63734;45.218;36.708;2023-03-01T03:53:35;1.72;94.36
75153;HTU21D;63734;45.218;36.708;2023-03-01T03:56:01;1.66;94.13
75153;HTU21D;63734;45.218;36.708;2023-03-01T03:58:27;1.67;94.25
75153;HTU21D;63734;45.218;36.708;2023-03-01T04:00:55;1.63;93.86
75153;HTU21D;63734;45.218;36.708;2023-03-01T04:03:23;1.57;93.82
75153;HTU21D;63734;45.218;36.708;2023-03-01T04:05:50;1.57;94.01
75153;HTU21D;63734;45.218;36.708;2023-03-01T04:08:21;1.60;93.98
75153;HTU21D;63734;45.218;36.708;2023-03-01T04:10:49;1.64;93.98
75153;HTU21D;63734;45.218;36.708;2023-03-01T04:13:19;1.67;93.88
75153;HTU21D;63734;45.218;36.708;2023-03-01T04:15:46;1.70;93.82
75153;HTU21D;63734;45.218;36.708;2023-03-01T04:18:16;1.73;93.75
75153;HTU21D;63734;45.218;36.708;2023-03-01T04:20:43;1.77;93.67
75153;HTU21D;63734;45.218;36.708;2023-03-01T04:23:16;1.82;93.66
75153;HTU21D;63734;45.218;36.708;2023-03-01T04:25:56;1.87;93.51
75153;HTU21D;63734;45.218;36.708;2023-03-01T04:30:57;1.96;93.30
75153;HTU21D;63734;45.218;36.708;2023-03-01T04:33:24;1.97;93.27
75153;HTU21D;63734;45.218;36.708;2023-03-01T04:35:51;1.97;93.15
75153;HTU21D;63734;45.218;36.708;2023-03-01T04:38:18;1.93;93.24
75153;HTU21D;63734;45.218;36.708;2023-03-01T04:40:45;2.05;93.22
75153;HTU21D;63734;45.218;36.708;2023-03-01T04:43:12;2.08;93.03
75153;HTU21D;63734;45.218;36.708;2023-03-01T04:45:40;2.06;93.01
75153;HTU21D;63734;45.218;36.708;2023-03-01T04:48:06;2.09;93.07
75153;HTU21D;63734;45.218;36.708;2023-03-01T04:50:32;2.11;92.98
75153;HTU21D;63734;45.218;36.708;2023-03-01T04:52:58;2.17;92.88
75153;HTU21D;63734;45.218;36.708;2023-03-01T04:55:26;2.20;92.78
75153;HTU21D;63734;45.218;36.708;2023-03-01T04:57:52;2.14;92.63
75153;HTU21D;63734;45.218;36.708;2023-03-01T05:00:19;2.10;92.68
75153;HTU21D;63734;45.218;36.708;2023-03-01T05:02:47;2.06;92.72
75153;HTU21D;63734;45.218;36.708;2023-03-01T05:05:15;2.00;92.79
75153;HTU21D;63734;45.218;36.708;2023-03-01T05:07:41;1.96;92.67
75153;HTU21D;63734;45.218;36.708;2023-03-01T05:10:07;1.91;92.68
75153;HTU21D;63734;45.218;36.708;2023-03-01T05:12:33;1.87;92.82
75153;HTU21D;63734;45.218;36.708;2023-03-01T05:14:59;1.85;92.84
75153;HTU21D;63734;45.218;36.708;2023-03-01T05:17:25;1.86;92.96
75153;HTU21D;63734;45.218;36.708;2023-03-01T05:19:51;1.84;92.88
75153;HTU21D;63734;45.218;36.708;2023-03-01T05:22:17;1.84;92.81
75153;HTU21D;63734;45.218;36.708;2023-03-01T05:24:43;1.80;92.80
75153;HTU21D;63734;45.218;36.708;2023-03-01T05:27:08;1.80;92.79
75153;HTU21D;63734;45.218;36.708;2023-03-01T05:29:34;1.77;92.72
75153;HTU21D;63734;45.218;36.708;2023-03-01T05:32:01;1.70;92.66
75153;HTU21D;63734;45.218;36.708;2023-03-01T05:34:31;1.66;92.66
75153;HTU21D;63734;45.218;36.708;2023-03-01T05:36:58;1.65;92.79
75153;HTU21D;63734;45.218;36.708;2023-03-01T05:39:25;1.69;92.95
75153;HTU21D;63734;45.218;36.708;2023-03-01T05:41:53;1.72;93.18
75153;HTU21D;63734;45.218;36.708;2023-03-01T05:44:20;1.75;93.19
75153;HTU21D;63734;45.218;36.708;2023-03-01T05:46:46;1.77;93.37
75153;HTU21D;63734;45.218;36.708;2023-03-01T05:49:14;1.77;93.49
75153;HTU21D;63734;45.218;36.708;2023-03-01T05:51:41;1.79;93.49
75153;HTU21D;63734;45.218;36.708;2023-03-01T05:54:07;1.78;93.42
75153;HTU21D;63734;45.218;36.708;2023-03-01T05:56:34;1.76;93.38
75153;HTU21D;63734;45.218;36.708;2023-03-01T05:59:01;1.72;93.24
75153;HTU21D;63734;45.218;36.708;2023-03-01T06:01:27;1.68;93.25
75153;HTU21D;63734;45.218;36.708;2023-03-01T06:03:53;1.67;93.13
75153;HTU21D;63734;45.218;36.708;2023-03-01T06:06:19;1.67;93.33
75153;HTU21D;63734;45.218;36.708;2023-03-01T06:08:45;1.66;93.11
75153;HTU21D;63734;45.218;36.708;2023-03-01T06:11:11;1.66;93.31
75153;HTU21D;63734;45.218;36.708;2023-03-01T06:13:37;1.73;93.38
75153;HTU21D;63734;45.218;36.708;2023-03-01T06:16:06;1.71;92.98
75153;HTU21D;63734;45.218;36.708;2023-03-01T06:18:33;1.71;93.17
75153;HTU21D;63734;45.218;36.708;2023-03-01T06:20:58;1.72;93.06
75153;HTU21D;63734;45.218;36.708;2023-03-01T06:23:25;1.72;93.08
75153;HTU21D;63734;45.218;36.708;2023-03-01T06:25:51;1.82;93.25
75153;HTU21D;63734;45.218;36.708;2023-03-01T06:28:17;1.93;93.22
75153;HTU21D;63734;45.218;36.708;2023-03-01T06:30:43;1.97;92.92
75153;HTU21D;63734;45.218;36.708;2023-03-01T06:33:09;1.98;92.52
75153;HTU21D;63734;45.218;36.708;2023-03-01T06:35:35;1.99;92.56
75153;HTU21D;63734;45.218;36.708;2023-03-01T06:38:02;2.01;92.24
75153;HTU21D;63734;45.218;36.708;2023-03-01T06:40:29;2.07;92.44
75153;HTU21D;63734;45.218;36.708;2023-03-01T06:42:57;2.14;92.37
75153;HTU21D;63734;45.218;36.708;2023-03-01T06:45:23;2.20;92.49
75153;HTU21D;63734;45.218;36.708;2023-03-01T06:47:50;2.25;92.32
75153;HTU21D;63734;45.218;36.708;2023-03-01T06:50:17;2.34;92.20
75153;HTU21D;63734;45.218;36.708;2023-03-01T06:52:43;2.37;92.03
75153;HTU21D;63734;45.218;36.708;2023-03-01T06:55:11;2.44;92.05
75153;HTU21D;63734;45.218;36.708;2023-03-01T06:57:37;2.53;91.70
75153;HTU21D;63734;45.218;36.708;2023-03-01T07:00:04;2.55;91.20
75153;HTU21D;63734;45.218;36.708;2023-03-01T07:02:31;2.49;90.61
75153;HTU21D;63734;45.218;36.708;2023-03-01T07:04:57;2.46;90.55
75153;HTU21D;63734;45.218;36.708;2023-03-01T07:07:23;2.52;90.68
75153;HTU21D;63734;45.218;36.708;2023-03-01T07:09:50;2.58;90.39
75153;HTU21D;63734;45.218;36.708;2023-03-01T07:12:16;2.60;90.09
75153;HTU21D;63734;45.218;36.708;2023-03-01T07:14:43;2.56;89.34
75153;HTU21D;63734;45.218;36.708;2023-03-01T07:17:09;2.55;89.55
75153;HTU21D;63734;45.218;36.708;2023-03-01T07:19:35;2.56;89.50
75153;HTU21D;63734;45.218;36.708;2023-03-01T07:22:03;2.55;89.46
75153;HTU21D;63734;45.218;36.708;2023-03-01T07:24:29;2.55;89.12
75153;HTU21D;63734;45.218;36.708;2023-03-01T07:26:55;2.58;89.27
75153;HTU21D;63734;45.218;36.708;2023-03-01T07:29:21;2.62;89.37
75153;HTU21D;63734;45.218;36.708;2023-03-01T07:31:47;2.68;89.30
75153;HTU21D;63734;45.218;36.708;2023-03-01T07:34:13;2.62;88.70
75153;HTU21D;63734;45.218;36.708;2023-03-01T07:36:39;2.64;89.02
75153;HTU21D;63734;45.218;36.708;2023-03-01T07:39:10;2.69;89.16
75153;HTU21D;63734;45.218;36.708;2023-03-01T07:41:36;2.76;89.18
75153;HTU21D;63734;45.218;36.708;2023-03-01T07:44:02;2.83;88.87
75153;HTU21D;63734;45.218;36.708;2023-03-01T07:46:28;2.98;88.60
75153;HTU21D;63734;45.218;36.708;2023-03-01T07:48:54;3.05;87.90
75153;HTU21D;63734;45.218;36.708;2023-03-01T07:51:20;3.09;87.67
75153;HTU21D;63734;45.218;36.708;2023-03-01T07:53:47;3.15;87.51
75153;HTU21D;63734;45.218;36.708;2023-03-01T07:56:15;3.14;87.33
75153;HTU21D;63734;45.218;36.708;2023-03-01T07:58:44;3.17;87.51
75153;HTU21D;63734;45.218;36.708;2023-03-01T08:01:18;3.19;87.40
75153;HTU21D;63734;45.218;36.708;2023-03-01T08:03:44;3.34;87.86
75153;HTU21D;63734;45.218;36.708;2023-03-01T08:06:11;3.71;87.95
75153;HTU21D;63734;45.218;36.708;2023-03-01T08:08:37;4.03;87.34
75153;HTU21D;63734;45.218;36.708;2023-03-01T08:11:05;4.22;86.60
75153;HTU21D;63734;45.218;36.708;2023-03-01T08:13:32;4.24;85.97
75153;HTU21D;63734;45.218;36.708;2023-03-01T08:16:07;4.19;86.37
75153;HTU21D;63734;45.218;36.708;2023-03-01T08:18:33;4.26;86.27
75153;HTU21D;63734;45.218;36.708;2023-03-01T08:21:04;4.26;86.09
75153;HTU21D;63734;45.218;36.708;2023-03-01T08:23:30;4.43;86.45
75153;HTU21D;63734;45.218;36.708;2023-03-01T08:26:19;4.60;86.31
75153;HTU21D;63734;45.218;36.708;2023-03-01T08:28:46;4.82;86.06
75153;HTU21D;63734;45.218;36.708;2023-03-01T08:31:18;5.02;85.87
75153;HTU21D;63734;45.218;36.708;2023-03-01T08:33:45;5.21;85.55
75153;HTU21D;63734;45.218;36.708;2023-03-01T08:36:17;5.38;85.25
75153;HTU21D;63734;45.218;36.708;2023-03-01T08:38:43;5.46;84.75
75153;HTU21D;63734;45.218;36.708;2023-03-01T08:41:09;5.50;83.90
75153;HTU21D;63734;45.218;36.708;2023-03-01T08:43:35;5.53;84.42
75153;HTU21D;63734;45.218;36.708;2023-03-01T08:46:01;5.64;84.46
75153;HTU21D;63734;45.218;36.708;2023-03-01T08:48:28;5.68;84.31
75153;HTU21D;63734;45.218;36.708;2023-03-01T08:50:54;5.83;83.87
75153;HTU21D;63734;45.218;36.708;2023-03-01T08:53:20;5.92;83.96
75153;HTU21D;63734;45.218;36.708;2023-03-01T08:55:46;6.02;83.77
75153;HTU21D;63734;45.218;36.708;2023-03-01T08:58:12;6.02;83.52
75153;HTU21D;63734;45.218;36.708;2023-03-01T09:00:38;6.00;83.66
75153;HTU21D;63734;45.218;36.708;2023-03-01T09:03:05;6.12;83.74
75153;HTU21D;63734;45.218;36.708;2023-03-01T09:05:33;6.20;82.62
75153;HTU21D;63734;45.218;36.708;2023-03-01T09:07:59;6.20;82.33
75153;HTU21D;63734;45.218;36.708;2023-03-01T09:10:25;6.15;81.08
75153;HTU21D;63734;45.218;36.708;2023-03-01T09:12:51;6.16;81.10
75153;HTU21D;63734;45.218;36.708;2023-03-01T09:15:17;6.25;81.10
75153;HTU21D;63734;45.218;36.708;2023-03-01T09:17:43;6.26;80.54
75153;HTU21D;63734;45.218;36.708;2023-03-01T09:20:10;6.17;79.78
75153;HTU21D;63734;45.218;36.708;2023-03-01T09:22:36;6.25;80.14
75153;HTU21D;63734;45.218;36.708;2023-03-01T09:25:02;6.37;80.65
75153;HTU21D;63734;45.218;36.708;2023-03-01T09:27:28;6.55;80.24
75153;HTU21D;63734;45.218;36.708;2023-03-01T09:29:54;6.58;79.17
75153;HTU21D;63734;45.218;36.708;2023-03-01T09:32:21;6.57;78.24
75153;HTU21D;63734;45.218;36.708;2023-03-01T09:34:47;6.46;78.01
75153;HTU21D;63734;45.218;36.708;2023-03-01T09:37:33;6.39;78.18
75153;HTU21D;63734;45.218;36.708;2023-03-01T09:39:59;6.31;78.78
75153;HTU21D;63734;45.218;36.708;2023-03-01T09:42:27;6.30;78.07
75153;HTU21D;63734;45.218;36.708;2023-03-01T09:47:31;6.28;78.14
75153;HTU21D;63734;45.218;36.708;2023-03-01T09:50:06;6.17;77.57
75153;HTU21D;63734;45.218;36.708;2023-03-01T09:53:01;6.02;77.94
75153;HTU21D;63734;45.218;36.708;2023-03-01T09:56:12;5.99;78.85
75153;HTU21D;63734;45.218;36.708;2023-03-01T10:01:34;6.02;79.27
75153;HTU21D;63734;45.218;36.708;2023-03-01T10:07:12;6.31;79.58
75153;HTU21D;63734;45.218;36.708;2023-03-01T10:09:42;6.15;78.20
75153;HTU21D;63734;45.218;36.708;2023-03-01T10:12:30;5.66;79.37
75153;HTU21D;63734;45.218;36.708;2023-03-01T10:17:48;5.83;80.56
75153;HTU21D;63734;45.218;36.708;2023-03-01T10:20:26;5.98;80.31
75153;HTU21D;63734;45.218;36.708;2023-03-01T10:22:56;6.08;79.75
75153;HTU21D;63734;45.218;36.708;2023-03-01T10:28:24;6.41;79.05
75153;HTU21D;63734;45.218;36.708;2023-03-01T10:30:51;6.51;77.88
75153;HTU21D;63734;45.218;36.708;2023-03-01T10:33:30;6.49;77.85
75153;HTU21D;63734;45.218;36.708;2023-03-01T10:35:57;6.45;77.44
75153;HTU21D;63734;45.218;36.708;2023-03-01T10:38:26;6.46;75.81
75153;HTU21D;63734;45.218;36.708;2023-03-01T10:41:13;6.29;74.55
75153;HTU21D;63734;45.218;36.708;2023-03-01T10:43:46;6.06;73.44
75153;HTU21D;63734;45.218;36.708;2023-03-01T10:46:34;5.76;73.45
75153;HTU21D;63734;45.218;36.708;2023-03-01T10:49:29;5.65;74.02
75153;HTU21D;63734;45.218;36.708;2023-03-01T10:51:55;5.65;73.71
75153;HTU21D;63734;45.218;36.708;2023-03-01T10:54:26;5.68;73.22
75153;HTU21D;63734;45.218;36.708;2023-03-01T10:57:01;5.78;73.36
75153;HTU21D;63734;45.218;36.708;2023-03-01T10:59:32;5.96;73.98
75153;HTU21D;63734;45.218;36.708;2023-03-01T11:02:18;6.05;73.19
75153;HTU21D;63734;45.218;36.708;2023-03-01T11:05:23;6.02;73.32
75153;HTU21D;63734;45.218;36.708;2023-03-01T11:10:26;6.08;73.49
75153;HTU21D;63734;45.218;36.708;2023-03-01T11:12:56;6.14;73.61
75153;HTU21D;63734;45.218;36.708;2023-03-01T11:15:31;6.19;73.38
75153;HTU21D;63734;45.218;36.708;2023-03-01T11:17:57;6.23;73.32
75153;HTU21D;63734;45.218;36.708;2023-03-01T11:20:33;6.30;73.42
75153;HTU21D;63734;45.218;36.708;2023-03-01T11:23:14;6.43;73.70
75153;HTU21D;63734;45.218;36.708;2023-03-01T11:25:47;6.61;73.70
75153;HTU21D;63734;45.218;36.708;2023-03-01T11:28:17;6.81;72.67
75153;HTU21D;63734;45.218;36.708;2023-03-01T11:31:10;6.80;72.19
75153;HTU21D;63734;45.218;36.708;2023-03-01T11:34:03;6.81;72.10
75153;HTU21D;63734;45.218;36.708;2023-03-01T11:36:59;6.80;72.01
75153;HTU21D;63734;45.218;36.708;2023-03-01T11:42:06;6.72;72.26
75153;HTU21D;63734;45.218;36.708;2023-03-01T11:44:38;6.76;72.89
75153;HTU21D;63734;45.218;36.708;2023-03-01T11:49:52;6.87;72.62
75153;HTU21D;63734;45.218;36.708;2023-03-01T12:11:20;6.64;69.88
75153;HTU21D;63734;45.218;36.708;2023-03-01T12:19:33;6.51;69.84
75153;HTU21D;63734;45.218;36.708;2023-03-01T12:42:10;5.36;68.51
75153;HTU21D;63734;45.218;36.708;2023-03-01T12:50:16;5.19;68.21
75153;HTU21D;63734;45.218;36.708;2023-03-01T12:52:49;5.16;68.29
75153;HTU21D;63734;45.218;36.708;2023-03-01T12:55:40;5.18;68.42
75153;HTU21D;63734;45.218;36.708;2023-03-01T13:00:40;5.26;68.81
75153;HTU21D;63734;45.218;36.708;2023-03-01T13:03:25;5.25;69.06
75153;HTU21D;63734;45.218;36.708;2023-03-01T13:09:06;5.34;69.83
75153;HTU21D;63734;45.218;36.708;2023-03-01T13:11:34;5.36;69.83
75153;HTU21D;63734;45.218;36.708;2023-03-01T13:16:51;5.49;70.10
75153;HTU21D;63734;45.218;36.708;2023-03-01T13:19:28;5.63;70.02
75153;HTU21D;63734;45.218;36.708;2023-03-01T13:22:25;5.74;69.68
75153;HTU21D;63734;45.218;36.708;2023-03-01T13:27:39;5.77;69.14
75153;HTU21D;63734;45.218;36.708;2023-03-01T13:35:59;5.81;69.06
75153;HTU21D;63734;45.218;36.708;2023-03-01T13:38:48;5.83;69.39
75153;HTU21D;63734;45.218;36.708;2023-03-01T13:44:34;5.90;69.84
75153;HTU21D;63734;45.218;36.708;2023-03-01T13:49:57;5.87;69.58
75153;HTU21D;63734;45.218;36.708;2023-03-01T13:52:50;5.87;69.84
75153;HTU21D;63734;45.218;36.708;2023-03-01T13:55:26;5.90;70.27
75153;HTU21D;63734;45.218;36.708;2023-03-01T13:57:58;5.98;70.55
75153;HTU21D;63734;45.218;36.708;2023-03-01T14:05:42;5.87;69.61
75153;HTU21D;63734;45.218;36.708;2023-03-01T14:08:20;5.81;69.91
75153;HTU21D;63734;45.218;36.708;2023-03-01T14:19:14;5.55;70.40
75153;HTU21D;63734;45.218;36.708;2023-03-01T14:21:42;5.46;71.03
75153;HTU21D;63734;45.218;36.708;2023-03-01T14:24:20;5.40;71.41
75153;HTU21D;63734;45.218;36.708;2023-03-01T14:26:48;5.41;71.67
75153;HTU21D;63734;45.218;36.708;2023-03-01T14:29:36;5.41;71.45
75153;HTU21D;63734;45.218;36.708;2023-03-01T14:32:15;5.45;71.67
75153;HTU21D;63734;45.218;36.708;2023-03-01T14:34:46;5.50;71.61
75153;HTU21D;63734;45.218;36.708;2023-03-01T14:39:48;5.53;71.29
75153;HTU21D;63734;45.218;36.708;2023-03-01T14:42:36;5.56;71.29
75153;HTU21D;63734;45.218;36.708;2023-03-01T14:45:03;5.59;71.38
75153;HTU21D;63734;45.218;36.708;2023-03-01T14:47:32;5.57;71.27
75153;HTU21D;63734;45.218;36.708;2023-03-01T14:50:30;5.53;71.35
75153;HTU21D;63734;45.218;36.708;2023-03-01T14:52:58;5.52;71.35
75153;HTU21D;63734;45.218;36.708;2023-03-01T14:55:29;5.48;71.45
75153;HTU21D;63734;45.218;36.708;2023-03-01T14:57:57;5.45;71.48
75153;HTU21D;63734;45.218;36.708;2023-03-01T15:00:25;5.39;71.70
75153;HTU21D;63734;45.218;36.708;2023-03-01T15:02:54;5.40;71.87
75153;HTU21D;63734;45.218;36.708;2023-03-01T15:05:31;5.37;71.99
75153;HTU21D;63734;45.218;36.708;2023-03-01T15:08:00;5.34;72.13
75153;HTU21D;63734;45.218;36.708;2023-03-01T15:10:29;5.31;72.38
75153;HTU21D;63734;45.218;36.708;2023-03-01T15:12:56;5.26;72.51
75153;HTU21D;63734;45.218;36.708;2023-03-01T15:17:56;5.16;72.71
75153;HTU21D;63734;45.218;36.708;2023-03-01T15:20:25;5.12;72.93
75153;HTU21D;63734;45.218;36.708;2023-03-01T15:22:54;5.07;72.99
75153;HTU21D;63734;45.218;36.708;2023-03-01T15:25:28;5.05;73.21
75153;HTU21D;63734;45.218;36.708;2023-03-01T15:27:56;5.03;73.34
75153;HTU21D;63734;45.218;36.708;2023-03-01T15:30:26;4.98;73.51
75153;HTU21D;63734;45.218;36.708;2023-03-01T15:33:17;4.95;73.62
75153;HTU21D;63734;45.218;36.708;2023-03-01T15:35:50;4.92;73.74
75153;HTU21D;63734;45.218;36.708;2023-03-01T15:38:49;4.86;73.89
75153;HTU21D;63734;45.218;36.708;2023-03-01T15:41:31;4.79;74.02
75153;HTU21D;63734;45.218;36.708;2023-03-01T15:43:59;4.75;74.17
75153;HTU21D;63734;45.218;36.708;2023-03-01T15:46:28;4.73;74.29
75153;HTU21D;63734;45.218;36.708;2023-03-01T15:48:59;4.69;74.36
75153;HTU21D;63734;45.218;36.708;2023-03-01T15:51:34;4.65;74.51
75153;HTU21D;63734;45.218;36.708;2023-03-01T15:54:13;4.62;74.60
75153;HTU21D;63734;45.218;36.708;2023-03-01T15:56:42;4.59;74.73
75153;HTU21D;63734;45.218;36.708;2023-03-01T15:59:10;4.57;74.86
75153;HTU21D;63734;45.218;36.708;2023-03-01T16:01:40;4.52;75.03
75153;HTU21D;63734;45.218;36.708;2023-03-01T16:04:06;4.48;75.23
75153;HTU21D;63734;45.218;36.708;2023-03-01T16:06:32;4.41;75.44
75153;HTU21D;63734;45.218;36.708;2023-03-01T16:08:59;4.35;75.64
75153;HTU21D;63734;45.218;36.708;2023-03-01T16:11:25;4.30;75.83
75153;HTU21D;63734;45.218;36.708;2023-03-01T16:13:51;4.24;76.05
75153;HTU21D;63734;45.218;36.708;2023-03-01T16:16:17;4.20;76.19
75153;HTU21D;63734;45.218;36.708;2023-03-01T16:18:45;4.15;76.37
75153;HTU21D;63734;45.218;36.708;2023-03-01T16:21:14;4.13;76.40
75153;HTU21D;63734;45.218;36.708;2023-03-01T16:23:43;4.03;76.57
75153;HTU21D;63734;45.218;36.708;2023-03-01T16:26:10;3.90;76.79
75153;HTU21D;63734;45.218;36.708;2023-03-01T16:28:36;3.82;77.01
75153;HTU21D;63734;45.218;36.708;2023-03-01T16:31:04;3.77;77.18
75153;HTU21D;63734;45.218;36.708;2023-03-01T16:33:30;3.75;77.37
75153;HTU21D;63734;45.218;36.708;2023-03-01T16:35:56;3.69;77.53
75153;HTU21D;63734;45.218;36.708;2023-03-01T16:38:22;3.62;77.60
75153;HTU21D;63734;45.218;36.708;2023-03-01T16:40:50;3.57;77.75
75153;HTU21D;63734;45.218;36.708;2023-03-01T16:43:16;3.49;77.92
75153;HTU21D;63734;45.218;36.708;2023-03-01T16:45:42;3.44;78.12
75153;HTU21D;63734;45.218;36.708;2023-03-01T16:48:11;3.35;78.32
75153;HTU21D;63734;45.218;36.708;2023-03-01T16:50:37;3.29;78.58
75153;HTU21D;63734;45.218;36.708;2023-03-01T16:53:03;3.24;78.90
75153;HTU21D;63734;45.218;36.708;2023-03-01T16:55:31;3.20;79.10
75153;HTU21D;63734;45.218;36.708;2023-03-01T16:57:57;3.17;79.27
75153;HTU21D;63734;45.218;36.708;2023-03-01T17:00:24;3.16;79.30
75153;HTU21D;63734;45.218;36.708;2023-03-01T17:02:50;3.15;79.24
75153;HTU21D;63734;45.218;36.708;2023-03-01T17:05:17;3.11;79.34
75153;HTU21D;63734;45.218;36.708;2023-03-01T17:07:46;3.08;79.42
75153;HTU21D;63734;45.218;36.708;2023-03-01T17:10:12;3.06;79.54
75153;HTU21D;63734;45.218;36.708;2023-03-01T17:12:39;3.06;79.56
75153;HTU21D;63734;45.218;36.708;2023-03-01T17:15:05;3.08;79.63
75153;HTU21D;63734;45.218;36.708;2023-03-01T17:17:32;3.08;79.63
75153;HTU21D;63734;45.218;36.708;2023-03-01T17:20:00;3.09;79.72
75153;HTU21D;63734;45.218;36.708;2023-03-01T17:22:27;3.10;79.81
75153;HTU21D;63734;45.218;36.708;2023-03-01T17:24:53;3.12;79.80
75153;HTU21D;63734;45.218;36.708;2023-03-01T17:27:19;3.14;79.83
75153;HTU21D;63734;45.218;36.708;2023-03-01T17:29:45;3.17;79.79
75153;HTU21D;63734;45.218;36.708;2023-03-01T17:32:12;3.19;79.83
75153;HTU21D;63734;45.218;36.708;2023-03-01T17:34:38;3.20;79.78
75153;HTU21D;63734;45.218;36.708;2023-03-01T17:37:08;3.20;79.85